D/T METAR WX W/SPE G/SPE TEMP DEWP FEEL
31/01/23 13:50 EGKK 311350Z 28016KT 9999 SCT024 SCT030 11/06 Q1024 18.4mph 11°C 6°C 10.6°C
31/01/23 13:20 EGKK 311320Z 25012KT 9999 SCT023 11/07 Q1023 13.8mph 11°C 7°C 11.0°C
31/01/23 12:50 EGKK 311250Z 24011KT 9999 SCT018 10/07 Q1024 12.7mph 10°C 7°C 10.0°C
31/01/23 06:50 EGKK 310650Z 23009KT 9999 SCT045 05/03 Q1025 10.4mph 5°C 3°C 3.7°C
30/01/23 21:50 EGKK 302150Z 20003KT CAVOK 02/M00 Q1028 3.5mph 2°C 0°C -0.2°C
30/01/23 12:50 EGKK 301250Z 31012KT 9999 FEW033 09/01 Q1025 13.8mph 9°C 1°C 7.1°C
30/01/23 11:50 EGKK 301150Z 32011KT 280V350 CAVOK 08/01 Q1025 12.7mph 8°C 1°C 6.1°C
30/01/23 11:20 EGKK 301120Z 31010KT CAVOK 08/02 Q1025 11.5mph 8°C 2°C 6.4°C
30/01/23 10:20 EGKK 301020Z 30008KT CAVOK 07/02 Q1025 9.2mph 7°C 2°C 5.4°C
30/01/23 07:50 EGKK 300750Z 30009KT CAVOK 07/03 Q1024 10.4mph 7°C 3°C 5.7°C
30/01/23 06:50 EGKK 300650Z 29011KT CAVOK 08/05 Q1023 12.7mph 8°C 5°C 7.3°C
09/01/23 06:20 EGKK 090620Z 25010KT CAVOK 06/04 Q0995 11.5mph 6°C 4°C 5.0°C
09/01/23 05:20 EGKK 090520Z 24009KT CAVOK 06/04 Q0995 10.4mph 6°C 4°C 5.0°C
09/01/23 04:50 EGKK 090450Z 24007KT CAVOK 05/04 Q0994 8.1mph 5°C 4°C 4.0°C
09/01/23 04:20 EGKK 090420Z 24007KT CAVOK 05/04 Q0994 8.1mph 5°C 4°C 4.0°C
09/01/23 03:20 EGKK 090320Z 24008KT CAVOK 05/04 Q0993 9.2mph 5°C 4°C 4.0°C
09/01/23 02:50 EGKK 090250Z 25011KT CAVOK 06/04 Q0992 12.7mph 6°C 4°C 5.0°C
09/01/23 02:20 EGKK 090220Z 25012KT 9999 SCT015 06/05 Q0992 13.8mph 6°C 5°C 5.3°C
09/01/23 01:20 EGKK 090120Z 25012KT 9999 SCT013 06/05 Q0990 13.8mph 6°C 5°C 5.3°C
09/01/23 00:50 EGKK 090050Z 25013KT 9999 BKN011 07/05 Q0990 15.0mph 7°C 5°C 6.3°C
09/01/23 00:20 EGKK 090020Z 25014KT 9000 -SHRA BKN013 07/05 Q0989 -SHRA 16.1mph 7°C 5°C 6.3°C
08/01/23 23:50 EGKK 082350Z 24013KT 210V270 9999 BKN014 07/05 Q0988 15.0mph 7°C 5°C 6.3°C
08/01/23 23:20 EGKK 082320Z 20009KT 160V220 8000 -SHRA FEW017 SCT028 07/06 Q0988 -SHRA 10.4mph 7°C 6°C 6.6°C
08/01/23 22:20 EGKK 082220Z 20008KT 170V240 9999 FEW022 SCT048 07/05 Q0989 9.2mph 7°C 5°C 6.3°C
08/01/23 20:50 EGKK 082050Z 20005KT 9999 FEW045 06/03 Q0990 5.8mph 6°C 3°C 4.7°C
08/01/23 19:20 EGKK 081920Z 20005KT CAVOK 05/03 Q0991 5.8mph 5°C 3°C 3.7°C
08/01/23 18:50 EGKK 081850Z 22005KT CAVOK 06/03 Q0991 5.8mph 6°C 3°C 4.7°C
08/01/23 17:50 EGKK 081750Z 23009KT 9999 FEW018 07/04 Q0991 10.4mph 7°C 4°C 6.0°C
08/01/23 17:20 EGKK 081720Z 23013KT 9999 SCT020 BKN028 08/05 Q0990 15.0mph 8°C 5°C 7.3°C
08/01/23 16:50 EGKK 081650Z 21012KT 9999 SCT017 BKN034 08/06 Q0990 13.8mph 8°C 6°C 7.6°C
08/01/23 16:20 EGKK 081620Z 20008KT 9999 -RA FEW008 SCT014 BKN035 07/05 Q0990 -RA 9.2mph 7°C 5°C 6.3°C
08/01/23 15:20 EGKK 081520Z 20007KT 9999 -RA FEW015 BKN017 06/05 Q0990 -RA 8.1mph 6°C 5°C 5.3°C
08/01/23 14:50 EGKK 081450Z 22008KT 7000 -RA SCT015 BKN032 06/05 Q0991 RERA -RA 9.2mph 6°C 5°C 5.3°C
08/01/23 13:50 EGKK 081350Z 22008G20KT 170V260 9999 3000W RA SCT014 BKN020 09/07 Q0990 RERA RA 9.2mph 23.0mph 9°C 7°C 9.0°C
08/01/23 13:20 EGKK 081320Z 20015G28KT 7000 -RA BKN017 09/06 Q0991 -RA 17.3mph 32.2mph 9°C 6°C 8.6°C
08/01/23 12:50 EGKK 081250Z 19016KT 6000 -RA BKN017 09/06 Q0991 -RA 18.4mph 9°C 6°C 8.6°C
08/01/23 12:20 EGKK 081220Z 20014KT 9999 BKN018 09/06 Q0992 16.1mph 9°C 6°C 8.6°C
08/01/23 11:20 EGKK 081120Z 19012G22KT 9999 SCT017 09/06 Q0993 13.8mph 25.3mph 9°C 6°C 8.6°C
08/01/23 10:20 EGKK 081020Z 20011KT 9999 SCT017 SCT024 09/06 Q0994 12.7mph 9°C 6°C 8.6°C
08/01/23 09:50 EGKK 080950Z 20011KT 9999 FEW016 SCT020 09/07 Q0994 12.7mph 9°C 7°C 9.0°C
08/01/23 09:20 EGKK 080920Z 20009KT 150V240 9999 SCT015 08/06 Q0995 10.4mph 8°C 6°C 7.6°C
08/01/23 08:50 EGKK 080850Z 20008KT 9999 FEW017 08/06 Q0995 9.2mph 8°C 6°C 7.6°C
08/01/23 08:20 EGKK 080820Z 21009KT 9999 SCT021 08/06 Q0995 10.4mph 8°C 6°C 7.6°C
08/01/23 07:50 EGKK 080750Z 21008KT 9999 -RA SCT011 SCT018 08/06 Q0995 RERA -RA 9.2mph 8°C 6°C 7.6°C
08/01/23 07:20 EGKK 080720Z 20007KT 170V260 8000 RA SCT009 SCT015 08/06 Q0996 RA 8.1mph 8°C 6°C 7.6°C
08/01/23 06:50 EGKK 080650Z 20006KT 160V220 9999 -RA SCT018 SCT034 07/06 Q0996 -RA 6.9mph 7°C 6°C 6.6°C
08/01/23 06:20 EGKK 080620Z 20007KT 9999 FEW023 SCT046 07/05 Q0996 8.1mph 7°C 5°C 6.3°C
08/01/23 05:50 EGKK 080550Z 20007KT 9999 SCT035 07/05 Q0996 8.1mph 7°C 5°C 6.3°C
08/01/23 05:20 EGKK 080520Z 21010KT 9999 SCT017 07/05 Q0996 RESHRA 11.5mph 7°C 5°C 6.3°C
08/01/23 04:50 EGKK 080450Z 22008KT 180V250 7000 -SHRA SCT015 BKN033 08/06 Q0996 -SHRA 9.2mph 8°C 6°C 7.6°C
08/01/23 04:20 EGKK 080420Z 21011KT 160V230 9999 SCT018 09/06 Q0997 12.7mph 9°C 6°C 8.6°C
08/01/23 03:20 EGKK 080320Z 22008KT 9999 FEW023 SCT035 07/05 Q0997 RESHRA 9.2mph 7°C 5°C 6.3°C
08/01/23 02:50 EGKK 080250Z 22014G28KT 180V250 5000 SHRA SCT015 BKN033 08/05 Q0998 SHRA 16.1mph 32.2mph 8°C 5°C 7.3°C
08/01/23 02:20 EGKK 080220Z 22012KT 9999 -SHRA FEW017 SCT027 08/06 Q0997 -SHRA 13.8mph 8°C 6°C 7.6°C
08/01/23 01:50 EGKK 080150Z 21011KT 180V250 9999 SCT020 09/06 Q0997 12.7mph 9°C 6°C 8.6°C
08/01/23 00:50 EGKK 080050Z 21011G21KT 9999 BKN020 09/06 Q0998 12.7mph 24.2mph 9°C 6°C 8.6°C
08/01/23 00:20 EGKK 080020Z 21011G22KT 9999 BKN022 09/06 Q0998 12.7mph 25.3mph 9°C 6°C 8.6°C
07/01/23 23:50 EGKK 072350Z 20009KT 9999 FEW028 SCT034 09/05 Q0998 10.4mph 9°C 5°C 8.3°C
07/01/23 23:20 EGKK 072320Z 20010KT 9999 SCT025 SCT042 09/06 Q0998 11.5mph 9°C 6°C 8.6°C
07/01/23 22:50 EGKK 072250Z 20008KT 170V230 9999 FEW026 SCT034 09/05 Q0998 9.2mph 9°C 5°C 8.3°C
07/01/23 22:20 EGKK 072220Z 20008KT 160V230 9999 FEW027 08/05 Q0998 9.2mph 8°C 5°C 7.3°C
07/01/23 21:50 EGKK 072150Z 21008KT CAVOK 08/04 Q0998 9.2mph 8°C 4°C 7.0°C
07/01/23 21:20 EGKK 072120Z 21008KT CAVOK 08/04 Q0998 9.2mph 8°C 4°C 7.0°C
07/01/23 20:50 EGKK 072050Z 21009KT 9999 FEW032 08/04 Q0998 10.4mph 8°C 4°C 7.0°C
07/01/23 20:20 EGKK 072020Z 21007KT 9999 FEW032 08/05 Q0998 8.1mph 8°C 5°C 7.3°C
07/01/23 19:50 EGKK 071950Z 22010KT 9999 FEW034 08/05 Q0998 11.5mph 8°C 5°C 7.3°C
07/01/23 18:50 EGKK 071850Z 22011G21KT CAVOK 07/05 Q0998 12.7mph 24.2mph 7°C 5°C 6.3°C
07/01/23 18:20 EGKK 071820Z 23013KT 9999 FEW012 SCT025 08/05 Q0997 15.0mph 8°C 5°C 7.3°C
07/01/23 17:50 EGKK 071750Z 23019G42KT 190V260 9999 -RA FEW016 BKN030 10/07 Q0997 -RA 21.9mph 48.3mph 10°C 7°C 10.0°C
07/01/23 17:20 EGKK 071720Z 22013KT 9999 FEW012 SCT035 09/07 Q0996 15.0mph 9°C 7°C 9.0°C
07/01/23 16:50 EGKK 071650Z 21015KT 9999 -RA SCT012 SCT016 10/08 Q0996 -RA 17.3mph 10°C 8°C 10.4°C
07/01/23 16:20 EGKK 071620Z 19013KT 9999 VCSH SCT012 SCT018 11/09 Q0996 VCSH 15.0mph 11°C 9°C 11.8°C
07/01/23 15:50 EGKK 071550Z 20012KT 170V230 9999 SCT013 SCT018 11/09 Q0997 13.8mph 11°C 9°C 11.8°C
07/01/23 15:20 EGKK 071520Z 21014KT 170V240 9000 -RA SCT011 SCT022 11/09 Q0997 RERA -RA 16.1mph 11°C 9°C 11.8°C
07/01/23 14:50 EGKK 071450Z 20016G27KT 6000 -RA BKN014 11/09 Q0997 -RA 18.4mph 31.1mph 11°C 9°C 11.8°C
07/01/23 14:20 EGKK 071420Z 20016G26KT 150V230 9999 BKN015 11/09 Q0997 18.4mph 29.9mph 11°C 9°C 11.8°C
07/01/23 13:50 EGKK 071350Z 19017G29KT 9999 BKN014 11/09 Q0997 19.6mph 33.4mph 11°C 9°C 11.8°C
07/01/23 12:50 EGKK 071250Z 19015KT 150V220 9000 -RA BKN013 10/08 Q0998 -RA 17.3mph 10°C 8°C 10.4°C
07/01/23 12:20 EGKK 071220Z 19016G26KT 8000 -RA BKN013 10/08 Q0999 -RA 18.4mph 29.9mph 10°C 8°C 10.4°C
07/01/23 11:50 EGKK 071150Z 19016KT 9999 BKN011 10/08 Q0999 18.4mph 10°C 8°C 10.4°C
07/01/23 11:20 EGKK 071120Z 19017G30KT 8000 BKN011 10/08 Q1000 19.6mph 34.5mph 10°C 8°C 10.4°C
07/01/23 10:50 EGKK 071050Z 18016G26KT 9999 BKN016 10/08 Q1000 18.4mph 29.9mph 10°C 8°C 10.4°C
07/01/23 10:20 EGKK 071020Z 18014KT 150V220 7000 -RA BKN012 10/08 Q1000 -RA 16.1mph 10°C 8°C 10.4°C
07/01/23 09:50 EGKK 070950Z 18016G26KT 5000 -RA FEW008 OVC014 10/08 Q1000 -RA 18.4mph 29.9mph 10°C 8°C 10.4°C
07/01/23 09:20 EGKK 070920Z 17015G25KT 4000 -RA BKN009 10/08 Q1001 -RA 17.3mph 28.8mph 10°C 8°C 10.4°C
07/01/23 08:50 EGKK 070850Z 17013G29KT 130V200 6000 -RA BKN015 10/08 Q1001 -RA 15.0mph 33.4mph 10°C 8°C 10.4°C
07/01/23 08:20 EGKK 070820Z 18017G27KT 150V210 9000 -RA BKN016 10/07 Q1002 -RA 19.6mph 31.1mph 10°C 7°C 10.0°C
07/01/23 07:50 EGKK 070750Z 18014G25KT 130V220 9999 BKN017 10/07 Q1002 16.1mph 28.8mph 10°C 7°C 10.0°C
07/01/23 07:20 EGKK 070720Z 17013G25KT 120V210 9999 BKN018 10/07 Q1003 15.0mph 28.8mph 10°C 7°C 10.0°C
07/01/23 06:50 EGKK 070650Z 17014KT 140V210 9999 BKN018 10/07 Q1004 16.1mph 10°C 7°C 10.0°C
07/01/23 06:20 EGKK 070620Z 17016G28KT 140V200 9999 BKN018 10/07 Q1004 18.4mph 32.2mph 10°C 7°C 10.0°C
07/01/23 05:50 EGKK 070550Z 18014KT 140V240 9999 SCT017 11/07 Q1005 16.1mph 11°C 7°C 11.0°C
07/01/23 05:20 EGKK 070520Z 18013KT 9999 SCT018 11/07 Q1005 15.0mph 11°C 7°C 11.0°C
07/01/23 04:50 EGKK 070450Z 18016KT 9999 SCT019 11/08 Q1005 18.4mph 11°C 8°C 11.4°C
07/01/23 04:20 EGKK 070420Z 18015KT 150V210 9999 SCT018 11/08 Q1006 17.3mph 11°C 8°C 11.4°C
07/01/23 03:50 EGKK 070350Z 18012KT 150V210 9999 SCT015 11/08 Q1007 13.8mph 11°C 8°C 11.4°C